sensor_id;sensor_type;location;lat;lon;timestamp;P1;durP1;ratioP1;P2;durP2;ratioP2
934;SDS011;454;53.254;10.400;2023-04-09T04:01:22;20.38;;;10.48;;
934;SDS011;454;53.254;10.400;2023-04-09T04:03:49;28.95;;;10.45;;
934;SDS011;454;53.254;10.400;2023-04-09T04:06:16;29.10;;;9.80;;
934;SDS011;454;53.254;10.400;2023-04-09T04:08:42;16.10;;;9.23;;
934;SDS011;454;53.254;10.400;2023-04-09T04:11:09;10.85;;;8.60;;
934;SDS011;454;53.254;10.400;2023-04-09T04:13:36;17.92;;;9.15;;
934;SDS011;454;53.254;10.400;2023-04-09T04:16:05;16.08;;;8.27;;
934;SDS011;454;53.254;10.400;2023-04-09T04:18:35;10.05;;;7.60;;
934;SDS011;454;53.254;10.400;2023-04-09T04:21:02;12.85;;;8.38;;
934;SDS011;454;53.254;10.400;2023-04-09T04:23:29;15.30;;;7.55;;
934;SDS011;454;53.254;10.400;2023-04-09T04:25:55;11.82;;;6.13;;
934;SDS011;454;53.254;10.400;2023-04-09T04:28:22;23.85;;;10.23;;
934;SDS011;454;53.254;10.400;2023-04-09T04:30:49;23.13;;;12.10;;
934;SDS011;454;53.254;10.400;2023-04-09T04:33:16;13.50;;;8.23;;
934;SDS011;454;53.254;10.400;2023-04-09T04:35:44;10.05;;;6.30;;
934;SDS011;454;53.254;10.400;2023-04-09T04:38:11;14.48;;;7.30;;
934;SDS011;454;53.254;10.400;2023-04-09T04:40:38;15.98;;;10.43;;
934;SDS011;454;53.254;10.400;2023-04-09T04:43:05;49.08;;;9.45;;
934;SDS011;454;53.254;10.400;2023-04-09T04:45:31;17.90;;;9.07;;
934;SDS011;454;53.254;10.400;2023-04-09T04:47:58;9.40;;;7.95;;
934;SDS011;454;53.254;10.400;2023-04-09T04:50:25;15.73;;;8.50;;
934;SDS011;454;53.254;10.400;2023-04-09T04:52:53;24.33;;;13.35;;
934;SDS011;454;53.254;10.400;2023-04-09T04:55:20;12.55;;;7.95;;
934;SDS011;454;53.254;10.400;2023-04-09T04:57:46;14.48;;;11.38;;
934;SDS011;454;53.254;10.400;2023-04-09T05:00:16;16.08;;;9.70;;
934;SDS011;454;53.254;10.400;2023-04-09T05:02:43;12.02;;;7.38;;
934;SDS011;454;53.254;10.400;2023-04-09T05:05:09;19.15;;;10.38;;
934;SDS011;454;53.254;10.400;2023-04-09T05:07:36;19.30;;;9.43;;
934;SDS011;454;53.254;10.400;2023-04-09T05:10:05;17.50;;;11.85;;
934;SDS011;454;53.254;10.400;2023-04-09T05:12:33;6.57;;;5.32;;
934;SDS011;454;53.254;10.400;2023-04-09T05:15:00;12.02;;;6.72;;
934;SDS011;454;53.254;10.400;2023-04-09T05:17:27;12.48;;;9.05;;
934;SDS011;454;53.254;10.400;2023-04-09T05:19:54;17.67;;;9.48;;
934;SDS011;454;53.254;10.400;2023-04-09T05:22:21;10.85;;;6.00;;
934;SDS011;454;53.254;10.400;2023-04-09T05:24:48;14.35;;;9.32;;
934;SDS011;454;53.254;10.400;2023-04-09T05:27:16;11.82;;;8.23;;
934;SDS011;454;53.254;10.400;2023-04-09T05:29:44;15.27;;;7.10;;
934;SDS011;454;53.254;10.400;2023-04-09T05:32:11;10.73;;;7.55;;
934;SDS011;454;53.254;10.400;2023-04-09T05:34:38;11.70;;;7.65;;
934;SDS011;454;53.254;10.400;2023-04-09T05:37:05;15.98;;;8.90;;
934;SDS011;454;53.254;10.400;2023-04-09T05:39:31;11.32;;;7.93;;
934;SDS011;454;53.254;10.400;2023-04-09T05:41:58;26.85;;;11.98;;
934;SDS011;454;53.254;10.400;2023-04-09T05:44:26;15.90;;;8.73;;
934;SDS011;454;53.254;10.400;2023-04-09T05:46:53;24.27;;;7.57;;
934;SDS011;454;53.254;10.400;2023-04-09T05:49:20;8.07;;;7.20;;
934;SDS011;454;53.254;10.400;2023-04-09T05:51:48;17.45;;;7.10;;
934;SDS011;454;53.254;10.400;2023-04-09T05:54:15;13.45;;;8.93;;
934;SDS011;454;53.254;10.400;2023-04-09T05:56:42;15.20;;;8.85;;
934;SDS011;454;53.254;10.400;2023-04-09T05:59:09;10.93;;;8.15;;
934;SDS011;454;53.254;10.400;2023-04-09T06:01:37;13.25;;;8.68;;
934;SDS011;454;53.254;10.400;2023-04-09T06:04:04;16.27;;;9.63;;
934;SDS011;454;53.254;10.400;2023-04-09T06:06:30;10.55;;;6.70;;
934;SDS011;454;53.254;10.400;2023-04-09T06:08:57;8.57;;;7.22;;
934;SDS011;454;53.254;10.400;2023-04-09T06:11:24;9.75;;;6.22;;
934;SDS011;454;53.254;10.400;2023-04-09T06:13:51;8.00;;;7.22;;
934;SDS011;454;53.254;10.400;2023-04-09T06:16:17;14.27;;;7.78;;
934;SDS011;454;53.254;10.400;2023-04-09T06:18:45;12.15;;;9.05;;
934;SDS011;454;53.254;10.400;2023-04-09T06:21:13;7.90;;;7.07;;
934;SDS011;454;53.254;10.400;2023-04-09T06:23:40;11.52;;;7.40;;
934;SDS011;454;53.254;10.400;2023-04-09T06:26:07;14.02;;;8.13;;
934;SDS011;454;53.254;10.400;2023-04-09T06:28:34;16.73;;;9.30;;
934;SDS011;454;53.254;10.400;2023-04-09T06:31:01;17.67;;;8.65;;
934;SDS011;454;53.254;10.400;2023-04-09T06:33:28;19.17;;;9.45;;
934;SDS011;454;53.254;10.400;2023-04-09T06:35:56;15.88;;;8.55;;
934;SDS011;454;53.254;10.400;2023-04-09T06:38:23;21.90;;;9.10;;
934;SDS011;454;53.254;10.400;2023-04-09T06:40:50;19.27;;;9.85;;
934;SDS011;454;53.254;10.400;2023-04-09T06:43:17;13.18;;;8.32;;
934;SDS011;454;53.254;10.400;2023-04-09T06:45:44;14.10;;;8.02;;
934;SDS011;454;53.254;10.400;2023-04-09T06:48:11;15.57;;;7.60;;
934;SDS011;454;53.254;10.400;2023-04-09T06:50:38;14.55;;;11.27;;
934;SDS011;454;53.254;10.400;2023-04-09T06:53:06;12.43;;;8.63;;
934;SDS011;454;53.254;10.400;2023-04-09T06:55:32;29.15;;;9.07;;
934;SDS011;454;53.254;10.400;2023-04-09T06:57:59;11.75;;;9.32;;
934;SDS011;454;53.254;10.400;2023-04-09T07:00:26;21.05;;;7.88;;
934;SDS011;454;53.254;10.400;2023-04-09T07:02:53;16.73;;;9.68;;
934;SDS011;454;53.254;10.400;2023-04-09T07:05:20;19.17;;;12.38;;
934;SDS011;454;53.254;10.400;2023-04-09T07:07:49;17.63;;;9.02;;
934;SDS011;454;53.254;10.400;2023-04-09T07:10:17;21.80;;;10.18;;
934;SDS011;454;53.254;10.400;2023-04-09T07:12:44;13.43;;;8.20;;
934;SDS011;454;53.254;10.400;2023-04-09T07:15:10;12.13;;;8.15;;
934;SDS011;454;53.254;10.400;2023-04-09T07:17:37;19.67;;;10.95;;
934;SDS011;454;53.254;10.400;2023-04-09T07:20:04;16.20;;;7.70;;
934;SDS011;454;53.254;10.400;2023-04-09T07:22:32;8.48;;;7.03;;
934;SDS011;454;53.254;10.400;2023-04-09T07:24:58;27.48;;;11.13;;
934;SDS011;454;53.254;10.400;2023-04-09T07:27:26;13.30;;;9.48;;
934;SDS011;454;53.254;10.400;2023-04-09T07:29:54;21.13;;;10.00;;
934;SDS011;454;53.254;10.400;2023-04-09T07:32:21;16.85;;;10.82;;
934;SDS011;454;53.254;10.400;2023-04-09T07:34:49;19.58;;;10.35;;
934;SDS011;454;53.254;10.400;2023-04-09T07:37:17;17.13;;;13.10;;
934;SDS011;454;53.254;10.400;2023-04-09T07:39:44;19.00;;;10.98;;
934;SDS011;454;53.254;10.400;2023-04-09T07:42:11;15.30;;;8.13;;
934;SDS011;454;53.254;10.400;2023-04-09T07:44:40;26.50;;;11.80;;
934;SDS011;454;53.254;10.400;2023-04-09T07:47:07;9.98;;;8.75;;
934;SDS011;454;53.254;10.400;2023-04-09T07:49:35;9.60;;;8.43;;
934;SDS011;454;53.254;10.400;2023-04-09T07:52:02;13.50;;;8.77;;
934;SDS011;454;53.254;10.400;2023-04-09T07:54:30;13.75;;;10.27;;
934;SDS011;454;53.254;10.400;2023-04-09T07:56:57;24.52;;;9.55;;
934;SDS011;454;53.254;10.400;2023-04-09T07:59:25;14.40;;;7.82;;
934;SDS011;454;53.254;10.400;2023-04-09T08:01:53;17.27;;;9.35;;
934;SDS011;454;53.254;10.400;2023-04-09T08:04:20;10.60;;;8.85;;
934;SDS011;454;53.254;10.400;2023-04-09T08:06:47;19.03;;;10.50;;
934;SDS011;454;53.254;10.400;2023-04-09T08:09:15;16.37;;;10.00;;
934;SDS011;454;53.254;10.400;2023-04-09T08:11:42;16.00;;;8.77;;
934;SDS011;454;53.254;10.400;2023-04-09T08:14:09;20.30;;;10.63;;
934;SDS011;454;53.254;10.400;2023-04-09T08:16:37;8.67;;;7.20;;
934;SDS011;454;53.254;10.400;2023-04-09T08:19:06;13.63;;;7.83;;
934;SDS011;454;53.254;10.400;2023-04-09T08:21:33;12.47;;;7.47;;
934;SDS011;454;53.254;10.400;2023-04-09T08:24:01;14.53;;;7.57;;
934;SDS011;454;53.254;10.400;2023-04-09T08:26:29;13.17;;;9.03;;
934;SDS011;454;53.254;10.400;2023-04-09T08:28:56;12.40;;;9.50;;
934;SDS011;454;53.254;10.400;2023-04-09T08:31:23;13.80;;;8.63;;
934;SDS011;454;53.254;10.400;2023-04-09T08:33:50;14.10;;;7.73;;
934;SDS011;454;53.254;10.400;2023-04-09T08:36:18;12.20;;;6.97;;
934;SDS011;454;53.254;10.400;2023-04-09T08:38:45;9.27;;;7.67;;
934;SDS011;454;53.254;10.400;2023-04-09T08:41:18;12.97;;;7.87;;
934;SDS011;454;53.254;10.400;2023-04-09T08:43:46;22.50;;;10.90;;
934;SDS011;454;53.254;10.400;2023-04-09T08:46:13;29.35;;;8.18;;
934;SDS011;454;53.254;10.400;2023-04-09T08:48:41;14.70;;;8.27;;
934;SDS011;454;53.254;10.400;2023-04-09T08:51:11;11.37;;;7.80;;
934;SDS011;454;53.254;10.400;2023-04-09T08:53:41;14.10;;;7.40;;
934;SDS011;454;53.254;10.400;2023-04-09T08:56:11;10.87;;;6.60;;
934;SDS011;454;53.254;10.400;2023-04-09T08:58:39;13.97;;;7.10;;
934;SDS011;454;53.254;10.400;2023-04-09T09:01:17;12.87;;;7.00;;
934;SDS011;454;53.254;10.400;2023-04-09T09:03:52;11.90;;;8.17;;
934;SDS011;454;53.254;10.400;2023-04-09T09:06:21;13.77;;;7.90;;
934;SDS011;454;53.254;10.400;2023-04-09T09:09:00;12.50;;;7.60;;
934;SDS011;454;53.254;10.400;2023-04-09T09:11:28;14.53;;;6.83;;
934;SDS011;454;53.254;10.400;2023-04-09T09:13:58;7.67;;;6.60;;
934;SDS011;454;53.254;10.400;2023-04-09T09:16:27;10.33;;;9.23;;
934;SDS011;454;53.254;10.400;2023-04-09T09:18:55;7.40;;;4.97;;
934;SDS011;454;53.254;10.400;2023-04-09T09:21:22;7.70;;;6.77;;
934;SDS011;454;53.254;10.400;2023-04-09T09:23:50;12.60;;;9.47;;
934;SDS011;454;53.254;10.400;2023-04-09T09:26:19;11.80;;;7.67;;
934;SDS011;454;53.254;10.400;2023-04-09T09:28:48;15.20;;;6.20;;
934;SDS011;454;53.254;10.400;2023-04-09T09:31:16;14.43;;;8.00;;
934;SDS011;454;53.254;10.400;2023-04-09T09:33:44;14.83;;;8.43;;
934;SDS011;454;53.254;10.400;2023-04-09T09:36:12;13.77;;;8.70;;
934;SDS011;454;53.254;10.400;2023-04-09T09:38:51;10.40;;;6.80;;
934;SDS011;454;53.254;10.400;2023-04-09T09:41:21;12.70;;;7.90;;
934;SDS011;454;53.254;10.400;2023-04-09T09:43:48;8.63;;;5.87;;
934;SDS011;454;53.254;10.400;2023-04-09T09:46:15;9.73;;;6.57;;
934;SDS011;454;53.254;10.400;2023-04-09T09:48:42;9.67;;;6.20;;
934;SDS011;454;53.254;10.400;2023-04-09T09:51:11;13.77;;;7.07;;
934;SDS011;454;53.254;10.400;2023-04-09T09:53:39;11.93;;;7.30;;
934;SDS011;454;53.254;10.400;2023-04-09T09:56:11;9.23;;;6.53;;
934;SDS011;454;53.254;10.400;2023-04-09T09:58:43;11.50;;;8.13;;
934;SDS011;454;53.254;10.400;2023-04-09T10:01:13;14.70;;;6.90;;
934;SDS011;454;53.254;10.400;2023-04-09T10:03:43;9.93;;;6.83;;
934;SDS011;454;53.254;10.400;2023-04-09T10:06:11;14.33;;;8.43;;
934;SDS011;454;53.254;10.400;2023-04-09T10:08:40;9.20;;;5.90;;
934;SDS011;454;53.254;10.400;2023-04-09T10:11:08;11.50;;;6.30;;
934;SDS011;454;53.254;10.400;2023-04-09T10:13:37;11.40;;;6.73;;
934;SDS011;454;53.254;10.400;2023-04-09T10:16:07;11.67;;;7.10;;
934;SDS011;454;53.254;10.400;2023-04-09T10:18:35;13.30;;;8.90;;
934;SDS011;454;53.254;10.400;2023-04-09T10:21:04;9.33;;;6.93;;
934;SDS011;454;53.254;10.400;2023-04-09T10:23:37;19.57;;;11.80;;
934;SDS011;454;53.254;10.400;2023-04-09T10:26:05;14.17;;;8.23;;
934;SDS011;454;53.254;10.400;2023-04-09T10:28:32;19.17;;;11.70;;
934;SDS011;454;53.254;10.400;2023-04-09T10:30:59;13.53;;;7.17;;
934;SDS011;454;53.254;10.400;2023-04-09T10:33:28;11.87;;;7.17;;
934;SDS011;454;53.254;10.400;2023-04-09T10:35:58;15.43;;;7.43;;
934;SDS011;454;53.254;10.400;2023-04-09T10:38:32;10.73;;;5.63;;
934;SDS011;454;53.254;10.400;2023-04-09T10:41:05;12.97;;;7.47;;
934;SDS011;454;53.254;10.400;2023-04-09T10:43:38;7.23;;;5.30;;
934;SDS011;454;53.254;10.400;2023-04-09T10:46:06;11.93;;;4.93;;
934;SDS011;454;53.254;10.400;2023-04-09T10:49:01;11.63;;;5.73;;
934;SDS011;454;53.254;10.400;2023-04-09T10:51:33;12.73;;;8.43;;
934;SDS011;454;53.254;10.400;2023-04-09T10:54:02;8.60;;;5.87;;
934;SDS011;454;53.254;10.400;2023-04-09T10:56:30;16.33;;;8.27;;
934;SDS011;454;53.254;10.400;2023-04-09T10:58:56;10.43;;;7.30;;
934;SDS011;454;53.254;10.400;2023-04-09T11:01:23;10.57;;;7.17;;
934;SDS011;454;53.254;10.400;2023-04-09T11:04:06;8.47;;;5.40;;
934;SDS011;454;53.254;10.400;2023-04-09T11:06:34;9.97;;;7.50;;
934;SDS011;454;53.254;10.400;2023-04-09T11:09:02;9.27;;;6.17;;
934;SDS011;454;53.254;10.400;2023-04-09T11:11:29;9.90;;;7.30;;
934;SDS011;454;53.254;10.400;2023-04-09T11:13:57;8.77;;;6.13;;
934;SDS011;454;53.254;10.400;2023-04-09T11:16:25;9.23;;;6.00;;
934;SDS011;454;53.254;10.400;2023-04-09T11:18:54;9.10;;;4.67;;
934;SDS011;454;53.254;10.400;2023-04-09T11:21:22;9.37;;;6.50;;
934;SDS011;454;53.254;10.400;2023-04-09T11:23:52;9.57;;;5.33;;
934;SDS011;454;53.254;10.400;2023-04-09T11:26:21;10.00;;;7.67;;
934;SDS011;454;53.254;10.400;2023-04-09T11:28:54;13.97;;;7.07;;
934;SDS011;454;53.254;10.400;2023-04-09T11:31:25;13.53;;;6.60;;
934;SDS011;454;53.254;10.400;2023-04-09T11:33:52;15.33;;;8.10;;
934;SDS011;454;53.254;10.400;2023-04-09T11:36:20;12.50;;;8.53;;
934;SDS011;454;53.254;10.400;2023-04-09T11:38:48;11.43;;;6.47;;
934;SDS011;454;53.254;10.400;2023-04-09T11:41:15;12.13;;;7.00;;
934;SDS011;454;53.254;10.400;2023-04-09T11:43:42;9.53;;;6.87;;
934;SDS011;454;53.254;10.400;2023-04-09T11:46:09;9.33;;;6.80;;
934;SDS011;454;53.254;10.400;2023-04-09T11:48:36;10.83;;;6.33;;
934;SDS011;454;53.254;10.400;2023-04-09T11:51:02;14.83;;;7.50;;
934;SDS011;454;53.254;10.400;2023-04-09T11:53:30;9.50;;;6.47;;
934;SDS011;454;53.254;10.400;2023-04-09T11:55:58;5.60;;;5.20;;
934;SDS011;454;53.254;10.400;2023-04-09T11:58:26;8.20;;;5.57;;
934;SDS011;454;53.254;10.400;2023-04-09T12:00:53;6.30;;;5.70;;
934;SDS011;454;53.254;10.400;2023-04-09T12:03:26;9.63;;;6.83;;
934;SDS011;454;53.254;10.400;2023-04-09T12:05:54;7.50;;;4.90;;
934;SDS011;454;53.254;10.400;2023-04-09T12:08:21;15.33;;;6.03;;
934;SDS011;454;53.254;10.400;2023-04-09T12:10:48;8.07;;;5.83;;
934;SDS011;454;53.254;10.400;2023-04-09T12:13:16;8.93;;;6.33;;
934;SDS011;454;53.254;10.400;2023-04-09T12:15:43;7.97;;;5.83;;
934;SDS011;454;53.254;10.400;2023-04-09T12:18:13;11.77;;;5.70;;
934;SDS011;454;53.254;10.400;2023-04-09T12:20:40;9.90;;;6.00;;
934;SDS011;454;53.254;10.400;2023-04-09T12:23:09;7.40;;;5.30;;
934;SDS011;454;53.254;10.400;2023-04-09T12:25:37;10.50;;;5.80;;
934;SDS011;454;53.254;10.400;2023-04-09T12:28:05;8.67;;;7.17;;
934;SDS011;454;53.254;10.400;2023-04-09T12:30:35;10.50;;;6.17;;
934;SDS011;454;53.254;10.400;2023-04-09T12:33:01;10.50;;;6.87;;
934;SDS011;454;53.254;10.400;2023-04-09T12:35:29;8.17;;;5.20;;
934;SDS011;454;53.254;10.400;2023-04-09T12:37:56;8.00;;;6.93;;
934;SDS011;454;53.254;10.400;2023-04-09T12:40:24;13.53;;;6.70;;
934;SDS011;454;53.254;10.400;2023-04-09T12:42:52;6.73;;;4.50;;
934;SDS011;454;53.254;10.400;2023-04-09T12:45:19;5.30;;;4.43;;
934;SDS011;454;53.254;10.400;2023-04-09T12:47:47;7.30;;;4.80;;
934;SDS011;454;53.254;10.400;2023-04-09T12:50:14;8.33;;;5.70;;
934;SDS011;454;53.254;10.400;2023-04-09T12:52:41;7.90;;;6.30;;
934;SDS011;454;53.254;10.400;2023-04-09T12:55:09;10.30;;;6.03;;
934;SDS011;454;53.254;10.400;2023-04-09T12:57:36;6.70;;;5.13;;
934;SDS011;454;53.254;10.400;2023-04-09T13:00:04;9.23;;;5.83;;
934;SDS011;454;53.254;10.400;2023-04-09T13:02:32;5.47;;;4.93;;
934;SDS011;454;53.254;10.400;2023-04-09T13:05:00;7.70;;;6.33;;
934;SDS011;454;53.254;10.400;2023-04-09T13:07:27;5.53;;;4.93;;
934;SDS011;454;53.254;10.400;2023-04-09T13:09:54;8.50;;;4.30;;
934;SDS011;454;53.254;10.400;2023-04-09T13:12:21;6.20;;;5.33;;
934;SDS011;454;53.254;10.400;2023-04-09T13:14:49;10.60;;;7.13;;
934;SDS011;454;53.254;10.400;2023-04-09T13:17:17;5.30;;;4.50;;
934;SDS011;454;53.254;10.400;2023-04-09T13:19:44;5.60;;;5.03;;
934;SDS011;454;53.254;10.400;2023-04-09T13:22:12;6.70;;;5.87;;
934;SDS011;454;53.254;10.400;2023-04-09T13:24:39;9.17;;;5.60;;
934;SDS011;454;53.254;10.400;2023-04-09T13:27:07;6.87;;;4.37;;
934;SDS011;454;53.254;10.400;2023-04-09T13:29:34;7.10;;;6.27;;
934;SDS011;454;53.254;10.400;2023-04-09T13:32:01;12.60;;;6.17;;
934;SDS011;454;53.254;10.400;2023-04-09T13:34:31;8.40;;;5.23;;
934;SDS011;454;53.254;10.400;2023-04-09T13:36:59;6.80;;;5.90;;
934;SDS011;454;53.254;10.400;2023-04-09T13:39:27;10.30;;;5.83;;
934;SDS011;454;53.254;10.400;2023-04-09T13:41:54;8.63;;;5.73;;
934;SDS011;454;53.254;10.400;2023-04-09T13:44:21;6.20;;;5.90;;
934;SDS011;454;53.254;10.400;2023-04-09T13:46:48;5.90;;;5.00;;
934;SDS011;454;53.254;10.400;2023-04-09T13:49:14;4.00;;;3.07;;
934;SDS011;454;53.254;10.400;2023-04-09T13:51:41;4.90;;;4.40;;
934;SDS011;454;53.254;10.400;2023-04-09T13:54:08;3.70;;;3.27;;
934;SDS011;454;53.254;10.400;2023-04-09T13:56:36;4.20;;;3.30;;
934;SDS011;454;53.254;10.400;2023-04-09T13:59:03;8.20;;;5.30;;
934;SDS011;454;53.254;10.400;2023-04-09T14:01:31;5.27;;;4.57;;
934;SDS011;454;53.254;10.400;2023-04-09T14:03:58;7.73;;;5.40;;
934;SDS011;454;53.254;10.400;2023-04-09T14:06:24;7.67;;;5.67;;
934;SDS011;454;53.254;10.400;2023-04-09T14:08:51;7.07;;;4.80;;
934;SDS011;454;53.254;10.400;2023-04-09T14:11:18;4.00;;;2.60;;
934;SDS011;454;53.254;10.400;2023-04-09T14:13:46;6.90;;;4.07;;
934;SDS011;454;53.254;10.400;2023-04-09T14:16:13;3.67;;;3.43;;
934;SDS011;454;53.254;10.400;2023-04-09T14:18:40;3.87;;;3.50;;
934;SDS011;454;53.254;10.400;2023-04-09T14:21:07;4.90;;;3.43;;
934;SDS011;454;53.254;10.400;2023-04-09T14:23:33;4.83;;;4.43;;
934;SDS011;454;53.254;10.400;2023-04-09T14:26:01;3.90;;;3.30;;
934;SDS011;454;53.254;10.400;2023-04-09T14:28:28;4.83;;;4.33;;
934;SDS011;454;53.254;10.400;2023-04-09T14:30:57;3.83;;;3.00;;
934;SDS011;454;53.254;10.400;2023-04-09T14:33:24;3.60;;;3.40;;
934;SDS011;454;53.254;10.400;2023-04-09T14:35:51;6.53;;;4.20;;
934;SDS011;454;53.254;10.400;2023-04-09T14:38:18;8.67;;;5.30;;
934;SDS011;454;53.254;10.400;2023-04-09T14:40:44;4.73;;;3.20;;
934;SDS011;454;53.254;10.400;2023-04-09T14:43:11;7.87;;;5.27;;
934;SDS011;454;53.254;10.400;2023-04-09T14:45:38;7.47;;;3.43;;
934;SDS011;454;53.254;10.400;2023-04-09T14:48:06;3.87;;;3.47;;
934;SDS011;454;53.254;10.400;2023-04-09T14:50:33;3.57;;;3.27;;
934;SDS011;454;53.254;10.400;2023-04-09T14:53:01;4.20;;;2.57;;
934;SDS011;454;53.254;10.400;2023-04-09T14:55:28;4.00;;;3.77;;
934;SDS011;454;53.254;10.400;2023-04-09T14:57:54;6.33;;;5.00;;
934;SDS011;454;53.254;10.400;2023-04-09T15:00:21;3.87;;;3.57;;
934;SDS011;454;53.254;10.400;2023-04-09T15:02:48;3.67;;;3.47;;
934;SDS011;454;53.254;10.400;2023-04-09T15:05:16;5.20;;;4.80;;
934;SDS011;454;53.254;10.400;2023-04-09T15:07:43;4.67;;;4.43;;
934;SDS011;454;53.254;10.400;2023-04-09T15:10:10;2.07;;;1.60;;
934;SDS011;454;53.254;10.400;2023-04-09T15:12:37;3.97;;;2.87;;
934;SDS011;454;53.254;10.400;2023-04-09T15:15:04;5.37;;;4.87;;
934;SDS011;454;53.254;10.400;2023-04-09T15:17:32;7.17;;;4.90;;
934;SDS011;454;53.254;10.400;2023-04-09T15:19:58;5.90;;;4.67;;
934;SDS011;454;53.254;10.400;2023-04-09T15:22:27;4.40;;;3.30;;
934;SDS011;454;53.254;10.400;2023-04-09T15:24:53;7.30;;;5.10;;
934;SDS011;454;53.254;10.400;2023-04-09T15:27:20;4.27;;;4.07;;
934;SDS011;454;53.254;10.400;2023-04-09T15:29:47;2.80;;;2.60;;
934;SDS011;454;53.254;10.400;2023-04-09T15:32:14;5.60;;;4.50;;
934;SDS011;454;53.254;10.400;2023-04-09T15:34:40;6.70;;;3.30;;
934;SDS011;454;53.254;10.400;2023-04-09T15:37:07;11.80;;;3.30;;
934;SDS011;454;53.254;10.400;2023-04-09T15:39:35;4.17;;;3.80;;
934;SDS011;454;53.254;10.400;2023-04-09T15:42:05;7.37;;;3.50;;
934;SDS011;454;53.254;10.400;2023-04-09T15:44:31;2.60;;;2.30;;
934;SDS011;454;53.254;10.400;2023-04-09T15:46:58;5.27;;;4.03;;
934;SDS011;454;53.254;10.400;2023-04-09T15:49:25;4.27;;;2.80;;
934;SDS011;454;53.254;10.400;2023-04-09T15:51:52;5.10;;;4.23;;
934;SDS011;454;53.254;10.400;2023-04-09T15:54:18;3.80;;;3.60;;
934;SDS011;454;53.254;10.400;2023-04-09T15:56:46;3.60;;;3.30;;
934;SDS011;454;53.254;10.400;2023-04-09T15:59:13;4.43;;;4.03;;
934;SDS011;454;53.254;10.400;2023-04-09T16:01:40;5.23;;;3.90;;
934;SDS011;454;53.254;10.400;2023-04-09T16:04:07;4.53;;;4.13;;
934;SDS011;454;53.254;10.400;2023-04-09T16:06:34;5.03;;;3.67;;
934;SDS011;454;53.254;10.400;2023-04-09T16:09:02;4.17;;;3.10;;
934;SDS011;454;53.254;10.400;2023-04-09T16:11:29;5.50;;;4.00;;
934;SDS011;454;53.254;10.400;2023-04-09T16:13:57;7.27;;;4.70;;
934;SDS011;454;53.254;10.400;2023-04-09T16:16:24;3.87;;;3.57;;
934;SDS011;454;53.254;10.400;2023-04-09T16:18:51;8.47;;;5.43;;
934;SDS011;454;53.254;10.400;2023-04-09T16:21:18;6.63;;;5.23;;
934;SDS011;454;53.254;10.400;2023-04-09T16:23:45;3.90;;;3.53;;
934;SDS011;454;53.254;10.400;2023-04-09T16:26:12;5.97;;;3.40;;
934;SDS011;454;53.254;10.400;2023-04-09T16:28:39;5.23;;;4.73;;
934;SDS011;454;53.254;10.400;2023-04-09T16:31:07;4.53;;;4.10;;
934;SDS011;454;53.254;10.400;2023-04-09T16:33:34;6.17;;;5.57;;
934;SDS011;454;53.254;10.400;2023-04-09T16:36:01;10.03;;;6.33;;
934;SDS011;454;53.254;10.400;2023-04-09T16:38:28;12.17;;;7.13;;
934;SDS011;454;53.254;10.400;2023-04-09T16:40:55;8.90;;;5.37;;
934;SDS011;454;53.254;10.400;2023-04-09T16:43:22;10.57;;;6.70;;
934;SDS011;454;53.254;10.400;2023-04-09T16:45:50;7.70;;;5.10;;
934;SDS011;454;53.254;10.400;2023-04-09T16:48:18;6.67;;;6.03;;
934;SDS011;454;53.254;10.400;2023-04-09T16:50:45;8.63;;;6.00;;
934;SDS011;454;53.254;10.400;2023-04-09T16:53:15;6.50;;;4.10;;
934;SDS011;454;53.254;10.400;2023-04-09T16:55:42;9.00;;;5.33;;
934;SDS011;454;53.254;10.400;2023-04-09T16:58:09;6.50;;;5.90;;
934;SDS011;454;53.254;10.400;2023-04-09T17:00:36;6.10;;;5.30;;
934;SDS011;454;53.254;10.400;2023-04-09T17:03:04;7.47;;;5.43;;
934;SDS011;454;53.254;10.400;2023-04-09T17:05:32;10.07;;;6.50;;
934;SDS011;454;53.254;10.400;2023-04-09T17:07:59;9.33;;;6.10;;
934;SDS011;454;53.254;10.400;2023-04-09T17:10:26;10.30;;;4.50;;
934;SDS011;454;53.254;10.400;2023-04-09T17:12:53;7.53;;;6.37;;
934;SDS011;454;53.254;10.400;2023-04-09T17:15:19;7.57;;;6.60;;
934;SDS011;454;53.254;10.400;2023-04-09T17:17:47;11.93;;;6.13;;
934;SDS011;454;53.254;10.400;2023-04-09T17:20:16;8.40;;;7.10;;
934;SDS011;454;53.254;10.400;2023-04-09T17:22:45;7.50;;;5.70;;
934;SDS011;454;53.254;10.400;2023-04-09T17:25:12;10.80;;;6.93;;
934;SDS011;454;53.254;10.400;2023-04-09T17:27:39;7.07;;;5.30;;
934;SDS011;454;53.254;10.400;2023-04-09T17:30:09;9.67;;;5.30;;
934;SDS011;454;53.254;10.400;2023-04-09T17:32:37;6.17;;;4.27;;
934;SDS011;454;53.254;10.400;2023-04-09T17:35:05;7.67;;;4.50;;
934;SDS011;454;53.254;10.400;2023-04-09T17:37:32;5.47;;;4.93;;
934;SDS011;454;53.254;10.400;2023-04-09T17:40:01;5.80;;;3.73;;
934;SDS011;454;53.254;10.400;2023-04-09T17:42:28;4.60;;;4.20;;
934;SDS011;454;53.254;10.400;2023-04-09T17:44:55;11.60;;;4.43;;
934;SDS011;454;53.254;10.400;2023-04-09T17:47:22;6.83;;;5.17;;
934;SDS011;454;53.254;10.400;2023-04-09T17:49:50;6.77;;;6.10;;
934;SDS011;454;53.254;10.400;2023-04-09T17:52:17;8.40;;;5.63;;
934;SDS011;454;53.254;10.400;2023-04-09T17:54:44;6.67;;;5.70;;
934;SDS011;454;53.254;10.400;2023-04-09T17:57:13;10.57;;;7.70;;
934;SDS011;454;53.254;10.400;2023-04-09T17:59:39;9.37;;;6.23;;
934;SDS011;454;53.254;10.400;2023-04-09T18:02:07;10.67;;;5.87;;
934;SDS011;454;53.254;10.400;2023-04-09T18:04:33;5.63;;;4.63;;
934;SDS011;454;53.254;10.400;2023-04-09T18:07:00;12.90;;;6.10;;
934;SDS011;454;53.254;10.400;2023-04-09T18:09:30;4.93;;;4.53;;
934;SDS011;454;53.254;10.400;2023-04-09T18:11:57;6.65;;;4.78;;
934;SDS011;454;53.254;10.400;2023-04-09T18:14:28;10.90;;;5.32;;
934;SDS011;454;53.254;10.400;2023-04-09T18:16:56;8.13;;;5.85;;
934;SDS011;454;53.254;10.400;2023-04-09T18:19:23;9.93;;;5.68;;
934;SDS011;454;53.254;10.400;2023-04-09T18:21:50;10.80;;;7.07;;
934;SDS011;454;53.254;10.400;2023-04-09T18:24:17;7.63;;;6.20;;
934;SDS011;454;53.254;10.400;2023-04-09T18:26:44;9.20;;;7.90;;
934;SDS011;454;53.254;10.400;2023-04-09T18:29:11;9.65;;;7.15;;
934;SDS011;454;53.254;10.400;2023-04-09T18:31:40;8.15;;;6.47;;
934;SDS011;454;53.254;10.400;2023-04-09T18:34:06;8.30;;;4.88;;
934;SDS011;454;53.254;10.400;2023-04-09T18:36:33;19.85;;;7.35;;
934;SDS011;454;53.254;10.400;2023-04-09T18:39:00;7.13;;;5.55;;
934;SDS011;454;53.254;10.400;2023-04-09T18:41:28;9.98;;;7.05;;
934;SDS011;454;53.254;10.400;2023-04-09T18:43:56;7.68;;;5.50;;
934;SDS011;454;53.254;10.400;2023-04-09T18:46:23;12.52;;;7.22;;
934;SDS011;454;53.254;10.400;2023-04-09T18:48:51;10.52;;;7.35;;
934;SDS011;454;53.254;10.400;2023-04-09T18:51:18;6.22;;;3.90;;
934;SDS011;454;53.254;10.400;2023-04-09T18:53:45;13.15;;;6.88;;
934;SDS011;454;53.254;10.400;2023-04-09T18:56:19;8.00;;;5.13;;
934;SDS011;454;53.254;10.400;2023-04-09T18:58:46;11.65;;;5.90;;
934;SDS011;454;53.254;10.400;2023-04-09T19:01:15;14.60;;;7.25;;
934;SDS011;454;53.254;10.400;2023-04-09T19:03:44;8.18;;;6.35;;
934;SDS011;454;53.254;10.400;2023-04-09T19:06:15;10.73;;;5.47;;
934;SDS011;454;53.254;10.400;2023-04-09T19:08:42;13.13;;;6.18;;
934;SDS011;454;53.254;10.400;2023-04-09T19:11:10;14.75;;;6.25;;
934;SDS011;454;53.254;10.400;2023-04-09T19:13:37;10.25;;;6.53;;
934;SDS011;454;53.254;10.400;2023-04-09T19:16:05;8.52;;;6.05;;
934;SDS011;454;53.254;10.400;2023-04-09T19:18:33;12.00;;;8.10;;
934;SDS011;454;53.254;10.400;2023-04-09T19:21:00;13.77;;;6.25;;
934;SDS011;454;53.254;10.400;2023-04-09T19:23:28;7.18;;;6.50;;
934;SDS011;454;53.254;10.400;2023-04-09T19:25:55;14.18;;;7.55;;